Ammo Dump (231) Station Data

Red Flag Warning: No
Fire Weather Zone: 250
SDGE Region: North Coast
Lat/Lon: 33.357/-117.276

Observations

Time Wind Speed/Gust Temp(F) RH Fuel Moist Fuel Temp(F) Dewpt(F) Tmax(F) Tmin(F) Accum Precip 10-min Precip SL Press(mb)
2/27 11:40pm 255 8 G 14 51° 99% - - 50° 56.5° 43.7° - - -
2/27 11:20pm 250 6 G 9 52° 99% - - 51° 56.5° 43.7° - - -
2/27 11:10pm 222 4 G 7 52° 99% - - 51° 56.5° 43.7° - - -
2/27 11:00pm 210 5 G 9 52° 99% - - 51° 56.5° 43.7° - - -
2/27 10:50pm 193 4 G 9 51° 99% - - 51° 56.5° 43.7° - - -
2/27 10:40pm 191 3 G 6 51° 99% - - 51° 56.5° 43.7° - - -
2/27 10:30pm 188 3 G 5 51° 99% - - 51° 56.5° 43.7° - - -
2/27 10:20pm 188 3 G 5 51° 98% - - 51° 56.5° 43.7° - - -
2/27 10:10pm 188 1 G 2 51° 98% - - 51° 56.5° 43.7° - - -
2/27 10:00pm 229 3 G 5 51° 98% - - 51° 56.5° 43.7° - - -
2/27 9:50pm 228 3 G 5 51° 98% - - 51° 56.5° 43.7° - - -
2/27 9:40pm 213 4 G 5 51° 98% - - 51° 56.5° 43.7° - - -
2/27 9:30pm 202 4 G 6 51° 98% - - 51° 56.5° 43.7° - - -
2/27 9:20pm 221 3 G 6 51° 98% - - 51° 56.5° 43.7° - - -
2/27 9:10pm 223 5 G 8 52° 98% - - 51° 56.5° 43.7° - - -
2/27 9:00pm 232 3 G 6 52° 98% - - 51° 56.5° 43.7° - - -
2/27 8:50pm 221 5 G 9 52° 98% - - 51° 56.5° 43.7° - - -
2/27 8:40pm 225 4 G 6 52° 98% - - 51° 56.5° 43.7° - - -
2/27 8:30pm 221 5 G 8 52° 98% - - 51° 56.5° 43.7° - - -
2/27 8:20pm 224 5 G 7 52° 98% - - 51° 56.5° 43.7° - - -
2/27 8:10pm 205 5 G 8 52° 99% - - 51° 56.5° 43.7° - - -
2/27 8:00pm 200 4 G 7 52° 99% - - 51° 56.5° 43.7° - - -
2/27 7:50pm 196 2 G 5 52° 99% - - 51° 56.5° 43.7° - - -
2/27 7:40pm 232 2 G 5 52° 99% - - 52° 56.5° 43.7° - - -
2/27 7:30pm 268 3 G 6 52° 99% - - 52° 56.5° 43.7° - - -
2/27 7:20pm 264 5 G 8 52° 99% - - 52° 56.5° 43.7° - - -
2/27 7:10pm 258 5 G 9 52° 99% - - 52° 56.5° 43.7° - - -
2/27 7:00pm 240 5 G 9 52° 99% - - 52° 56.5° 43.7° - - -
2/27 6:50pm 223 4 G 6 53° 99% - - 52° 56.5° 43.7° - - -
2/27 6:40pm 216 3 G 5 53° 99% - - 52° 56.5° 43.7° - - -
2/27 6:30pm 225 3 G 5 53° 99% - - 53° 56.5° 43.7° - - -
2/27 6:20pm 238 4 G 6 53° 99% - - 53° 56.5° 43.7° - - -
2/27 6:10pm 234 3 G 5 53° 99% - - 53° 56.5° 43.7° - - -
2/27 6:00pm 227 3 G 4 53° 99% - - 53° 56.5° 43.7° - - -
2/27 5:50pm 223 2 G 4 53° 99% - - 53° 56.5° 43.7° - - -
2/27 5:40pm 239 1 G 2 53° 99% - - 53° 56.5° 43.7° - - -
2/27 5:30pm 225 2 G 4 53° 99% - - 53° 56.5° 43.7° - - -
2/27 5:20pm 235 3 G 5 53° 99% - - 53° 56.5° 43.7° - - -
2/27 5:10pm 233 4 G 7 53° 99% - - 53° 56.5° 43.7° - - -
2/27 5:00pm 218 4 G 6 53° 98% - - 53° 56.5° 43.7° - - -
2/27 4:50pm 229 4 G 6 54° 98% - - 53° 56.5° 43.7° - - -
2/27 4:40pm 226 3 G 5 54° 98% - - 53° 56.5° 43.7° - - -
2/27 4:30pm 232 4 G 7 54° 98% - - 53° 56.5° 43.7° - - -
2/27 4:20pm 223 4 G 8 54° 98% - - 54° 56.5° 43.7° - - -
2/27 4:10pm 216 4 G 8 54° 98% - - 54° 56.5° 43.7° - - -
2/27 4:00pm 234 6 G 12 54° 97% - - 54° 56.5° 43.7° - - -
2/27 3:50pm 211 7 G 12 55° 98% - - 54° 56.5° 43.7° - - -
2/27 3:40pm 206 8 G 14 55° 98% - - 55° 56.5° 43.7° - - -
2/27 3:30pm 202 11 G 18 55° 97% - - 54° 56.5° 43.7° - - -
2/27 3:20pm 201 15 G 24 55° 96% - - 54° 56.5° 43.7° - - -
2/27 3:10pm 206 15 G 26 55° 97% - - 54° 56.5° 43.7° - - -
2/27 3:00pm 196 16 G 27 55° 97% - - 54° 56.5° 43.7° - - -
2/27 2:50pm 198 14 G 26 55° 97% - - 54° 56.5° 43.7° - - -
2/27 2:40pm 203 11 G 20 55° 97% - - 54° 56.5° 43.7° - - -
2/27 2:30pm 215 8 G 16 54° 97% - - 53° 56.5° 43.7° - - -
2/27 2:20pm 226 9 G 14 54° 97% - - 53° 56.5° 43.7° - - -
2/27 2:10pm 226 8 G 12 55° 97% - - 54° 56.5° 43.7° - - -
2/27 2:00pm 224 10 G 16 55° 97% - - 55° 56.5° 43.7° - - -
2/27 1:50pm 215 11 G 21 56° 98% - - 55° 56.5° 43.7° - - -
2/27 1:40pm 210 13 G 21 56° 98% - - 55° 56.5° 43.7° - - -
2/27 1:30pm 206 14 G 23 56° 98% - - 55° 56.5° 43.7° - - -
2/27 1:20pm 208 11 G 20 56° 98% - - 55° 56.5° 43.7° - - -
2/27 1:10pm 213 13 G 23 56° 98% - - 55° 56.5° 43.7° - - -
2/27 1:00pm 208 11 G 19 56° 98% - - 56° 56.5° 43.7° - - -
2/27 12:50pm 203 10 G 17 56° 98% - - 55° 56.3° 43.7° - - -
2/27 12:40pm 194 10 G 18 55° 98% - - 55° 56° 43.7° - - -
2/27 12:30pm 182 5 G 12 55° 97% - - 54° 56° 43.7° - - -
2/27 12:20pm 181 6 G 12 55° 97% - - 54° 56° 43.7° - - -
2/27 12:10pm 197 9 G 17 56° 97% - - 55° 56° 43.7° - - -
2/27 12:00pm 197 10 G 20 56° 98% - - 55° 56° 43.7° - - -
2/27 11:50am 189 8 G 18 55° 98% - - 55° 55.8° 43.7° - - -
2/27 11:40am 204 9 G 15 55° 99% - - 55° 55.7° 43.7° - - -
2/27 11:30am 206 8 G 17 54° 99% - - 54° 55.5° 43.7° - - -
2/27 11:20am 2 1 G 3 52° 99% - - 52° 53° 43.7° - - -
2/27 11:10am 328 1 G 4 52° 98% - - 51° 52.2° 43.7° - - -
2/27 11:00am 327 2 G 4 52° 98% - - 51° 52.2° 43.7° - - -
2/27 10:50am 153 1 G 2 52° 98% - - 51° 52.1° 43.7° - - -
2/27 10:40am 353 3 G 6 51° 98% - - 51° 51.6° 43.7° - - -
2/27 10:30am 21 5 G 7 51° 98% - - 50° 51.4° 43.7° - - -
2/27 10:20am 7 4 G 5 51° 98% - - 50° 51.4° 43.7° - - -
2/27 10:10am 69 2 G 4 51° 98% - - 50° 51.3° 43.7° - - -
2/27 10:00am 67 3 G 4 51° 98% - - 50° 51.1° 43.7° - - -
2/27 9:50am 43 2 G 4 50° 98% - - 50° 50.9° 43.7° - - -
2/27 9:40am 72 3 G 7 50° 98% - - 49° 50.2° 43.7° - - -
2/27 9:30am 27 3 G 6 49° 98% - - 49° 49.7° 43.7° - - -
2/27 9:20am 44 3 G 7 49° 98% - - 49° 49.7° 43.7° - - -
2/27 9:10am 36 3 G 5 49° 98% - - 48° 49.5° 43.7° - - -
2/27 9:00am 22 2 G 5 49° 98% - - 48° 49.2° 43.7° - - -
2/27 8:50am 34 5 G 7 49° 98% - - 48° 49.1° 43.7° - - -
2/27 8:40am 42 6 G 8 48° 97% - - 48° 48.9° 43.7° - - -
2/27 8:30am 48 7 G 9 48° 97% - - 47° 48.7° 43.7° - - -
2/27 8:20am 43 8 G 10 48° 97% - - 47° 48.7° 43.7° - - -
2/27 8:10am 53 6 G 10 48° 97% - - 47° 48.7° 43.7° - - -
2/27 8:00am 57 7 G 9 48° 97% - - 47° 48.2° 43.7° - - -
2/27 7:50am 50 6 G 9 47° 97% - - 47° 48.2° 43.7° - - -
2/27 7:40am 28 5 G 8 47° 97% - - 47° 48.2° 43.7° - - -
2/27 7:30am 50 7 G 9 47° 97% - - 47° 48.2° 43.7° - - -
2/27 7:20am 45 7 G 10 47° 97% - - 46° 48.2° 43.7° - - -
2/27 7:10am 47 7 G 9 47° 97% - - 46° 48.2° 43.7° - - -
2/27 7:00am 52 8 G 10 47° 97% - - 46° 48.2° 43.7° - - -
2/27 6:50am 50 10 G 12 47° 97% - - 46° 48.2° 43.7° - - -
2/27 6:40am 45 9 G 12 47° 96% - - 46° 48.2° 43.7° - - -
2/27 6:30am 38 10 G 13 46° 96% - - 45° 48.2° 43.7° - - -
2/27 6:20am 36 9 G 13 46° 96% - - 45° 48.2° 43.7° - - -
2/27 6:10am 39 10 G 13 46° 96% - - 45° 48.2° 43.7° - - -
2/27 6:00am 40 10 G 15 46° 95% - - 45° 48.2° 43.7° - - -
2/27 5:50am 40 11 G 14 46° 95% - - 45° 48.2° 43.7° - - -
2/27 5:40am 44 9 G 12 46° 96% - - 45° 48.2° 43.7° - - -
2/27 5:30am 38 9 G 13 46° 96% - - 45° 48.2° 43.7° - - -
2/27 5:20am 37 8 G 12 46° 96% - - 45° 48.2° 43.7° - - -
2/27 5:10am 41 8 G 12 46° 96% - - 45° 48.2° 43.7° - - -
2/27 5:00am 36 9 G 13 46° 96% - - 45° 48.2° 43.7° - - -
2/27 4:50am 33 9 G 14 46° 96% - - 45° 48.2° 43.7° - - -
2/27 4:40am 29 8 G 11 46° 96% - - 45° 48.2° 43.7° - - -
2/27 4:30am 31 9 G 13 46° 96% - - 45° 48.2° 43.7° - - -
2/27 4:20am 37 8 G 11 46° 96% - - 45° 48.2° 43.7° - - -
2/27 4:10am 42 8 G 11 46° 96% - - 45° 48.2° 43.7° - - -
2/27 4:00am 29 7 G 10 46° 96% - - 45° 48.2° 43.7° - - -
2/27 3:50am 41 7 G 10 46° 97% - - 45° 48.2° 43.7° - - -
2/27 3:40am 38 7 G 10 45° 96% - - 45° 48.2° 43.7° - - -
2/27 3:30am 33 6 G 9 45° 96% - - 44° 48.2° 43.7° - - -
2/27 3:20am 30 7 G 9 46° 96% - - 44° 48.2° 43.7° - - -
2/27 3:10am 36 7 G 10 46° 95% - - 44° 48.2° 43.7° - - -
2/27 3:00am 37 7 G 9 46° 94% - - 44° 48.2° 43.7° - - -
2/27 2:50am 45 6 G 8 46° 92% - - 44° 48.2° 43.7° - - -
2/27 2:40am 54 5 G 8 47° 90% - - 44° 48.2° 43.7° - - -
2/27 2:30am 56 6 G 9 47° 86% - - 44° 48.2° 43.7° - - -
2/27 2:20am 62 7 G 10 48° 85% - - 43° 48.2° 43.7° - - -
2/27 2:10am 65 7 G 10 48° 84% - - 43° 48.1° 43.7° - - -
2/27 2:00am 70 5 G 8 47° 88% - - 44° 47.8° 43.7° - - -
2/27 1:50am 62 4 G 6 47° 88% - - 44° 47.8° 43.7° - - -
2/27 1:40am 55 3 G 5 47° 89% - - 44° 47.7° 43.7° - - -
2/27 1:30am 68 1 G 4 47° 91% - - 44° 47.3° 43.7° - - -
2/27 1:20am 47 5 G 6 47° 90% - - 44° 47.3° 43.7° - - -
2/27 1:10am 38 6 G 7 47° 90% - - 44° 47.2° 43.7° - - -
2/27 1:00am 35 3 G 7 45° 93% - - 43° 46.6° 43.7° - - -
2/27 12:50am 129 0 G 1 45° 92% - - 43° 45.4° 43.7° - - -
2/27 12:40am 133 1 G 3 45° 93% - - 43° 45.3° 43.7° - - -
2/27 12:30am 91 1 G 3 44° 93% - - 43° 45° 43.7° - - -
2/27 12:20am 116 1 G 3 45° 94% - - 43° 45° 43.7° - - -
2/27 12:10am 129 1 G 3 44° 94% - - 42° 44.8° 43.7° - - -
2/27 12:00am 138 2 G 3 44° 94% - - 43° 56.8° 43.4° - - -
2/26 11:50pm 159 1 G 3 44° 93% - - 42° 56.8° 43.4° - - -
2/26 11:40pm 91 2 G 4 44° 95% - - 43° 56.8° 43.4° - - -
2/26 11:30pm 116 1 G 2 44° 94% - - 42° 56.8° 43.4° - - -
2/26 11:20pm 70 1 G 3 44° 94% - - 43° 56.8° 43.4° - - -
2/26 11:10pm 355 1 G 2 44° 94% - - 42° 56.8° 43.4° - - -
2/26 11:00pm 234 0 G 2 45° 95% - - 43° 56.8° 44° - - -
2/26 10:50pm 0 0 G 0 44° 95% - - 43° 56.8° 44° - - -
2/26 10:40pm 141 0 G 2 45° 95% - - 43° 56.8° 44.1° - - -
2/26 10:30pm 164 0 G 1 44° 95% - - 43° 56.8° 44.1° - - -
2/26 10:20pm 120 0 G 2 45° 95% - - 43° 56.8° 44.2° - - -
2/26 10:10pm 0 0 G 0 45° 94% - - 43° 56.8° 44.2° - - -
2/26 10:00pm 110 0 G 1 45° 94% - - 43° 56.8° 44.4° - - -
2/26 9:50pm 106 2 G 4 45° 93% - - 43° 56.8° 44.8° - - -
2/26 9:40pm 106 3 G 4 46° 91% - - 44° 56.8° 45.4° - - -
2/26 9:30pm 115 3 G 5 47° 90% - - 45° 56.8° 46.9° - - -
2/26 9:20pm 125 3 G 5 48° 90% - - 45° 56.8° 46.9° - - -
2/26 9:10pm 121 2 G 4 47° 90% - - 45° 56.8° 46.9° - - -
2/26 9:00pm 96 3 G 4 48° 89% - - 45° 56.8° 46.9° - - -
2/26 8:50pm 104 1 G 3 48° 89% - - 45° 56.8° 46.9° - - -
2/26 8:40pm 143 1 G 2 48° 88% - - 45° 56.8° 46.9° - - -
2/26 8:30pm 122 1 G 2 48° 88% - - 45° 56.8° 46.9° - - -
2/26 8:20pm 149 1 G 2 48° 87% - - 45° 56.8° 46.9° - - -
2/26 8:10pm 143 1 G 2 49° 87% - - 45° 56.8° 46.9° - - -
2/26 8:00pm 150 1 G 2 49° 88% - - 45° 56.8° 46.9° - - -
2/26 7:50pm 148 1 G 1 49° 86% - - 45° 56.8° 46.9° - - -
2/26 7:40pm 179 1 G 2 49° 86% - - 45° 56.8° 46.9° - - -
2/26 7:30pm 166 1 G 3 48° 89% - - 45° 56.8° 46.9° - - -
2/26 7:20pm 109 1 G 2 48° 89% - - 45° 56.8° 46.9° - - -
2/26 7:10pm 185 0 G 1 49° 88% - - 45° 56.8° 46.9° - - -
2/26 7:00pm 162 0 G 1 49° 88% - - 46° 56.8° 46.9° - - -
2/26 6:50pm 161 1 G 2 49° 87% - - 45° 56.8° 46.9° - - -
2/26 6:40pm 168 1 G 2 49° 85% - - 45° 56.8° 46.9° - - -
2/26 6:30pm 188 1 G 3 49° 86% - - 45° 56.8° 46.9° - - -
2/26 6:20pm 194 1 G 2 48° 87% - - 44° 56.8° 46.9° - - -
2/26 6:10pm 183 1 G 2 49° 83% - - 44° 56.8° 46.9° - - -
2/26 6:00pm 212 2 G 3 49° 82% - - 44° 56.8° 46.9° - - -
2/26 5:50pm 223 2 G 3 50° 80% - - 44° 56.8° 46.9° - - -
2/26 5:40pm 240 3 G 5 51° 77% - - 44° 56.8° 46.9° - - -
2/26 5:30pm 232 4 G 6 51° 74% - - 43° 56.8° 46.9° - - -
2/26 5:20pm 230 5 G 8 52° 71% - - 43° 56.8° 46.9° - - -
2/26 5:10pm 241 6 G 9 53° 74% - - 45° 56.8° 46.9° - - -
2/26 5:00pm 249 6 G 10 53° 75% - - 45° 56.8° 46.9° - - -